Time;durP1;ratioP1;P1;durP2;ratioP2;P2;SDS_P1;SDS_P2;PMS_P1;PMS_P2;Temp;Humidity;BMP_temperature;BMP_pressure;BME280_temperature;BME280_humidity;BME280_pressure;Samples;Min_cycle;Max_cycle;Signal;HPM_P1;HPM_P2
2023/01/16 00:02:02;;;;;;;3.28;2.10;;;;;;;;;;6217520;23;20014;-91
2023/01/16 00:04:28;;;;;;;11.82;3.67;;;;;;;;;;6217325;23;20015;-91
2023/01/16 00:06:55;;;;;;;5.57;2.90;;;;;;;;;;6243051;23;20361;-92
2023/01/16 00:09:21;;;;;;;6.97;3.72;;;;;;;;;;6218429;23;20075;-92
2023/01/16 00:11:47;;;;;;;14.20;3.63;;;;;;;;;;6243048;23;20054;-92
2023/01/16 00:14:13;;;;;;;7.38;3.53;;;;;;;;;;6243020;23;20000;-92
2023/01/16 00:16:40;;;;;;;8.90;2.47;;;;;;;;;;6217976;23;20420;-92
2023/01/16 00:19:06;;;;;;;11.80;3.80;;;;;;;;;;6218162;23;20012;-91
2023/01/16 00:21:32;;;;;;;7.13;3.60;;;;;;;;;;6218003;23;20016;-91
2023/01/16 00:23:58;;;;;;;14.50;4.25;;;;;;;;;;6218205;23;20008;-92
2023/01/16 00:26:25;;;;;;;8.27;3.65;;;;;;;;;;6242158;23;20012;-91
2023/01/16 00:28:51;;;;;;;12.27;3.45;;;;;;;;;;6242746;23;20091;-91
2023/01/16 00:31:17;;;;;;;7.13;3.92;;;;;;;;;;6242454;23;20003;-92
2023/01/16 00:33:43;;;;;;;15.55;5.25;;;;;;;;;;6243319;23;20088;-92
2023/01/16 00:36:10;;;;;;;11.23;4.30;;;;;;;;;;6242387;23;20436;-92
2023/01/16 00:38:37;;;;;;;6.88;3.45;;;;;;;;;;6243077;23;20006;-92
2023/01/16 00:41:03;;;;;;;7.53;3.75;;;;;;;;;;6243028;23;20254;-92
2023/01/16 00:43:29;;;;;;;11.98;3.67;;;;;;;;;;6243340;23;20004;-91
2023/01/16 00:45:56;;;;;;;9.68;3.42;;;;;;;;;;6243486;23;20004;-92
2023/01/16 00:48:22;;;;;;;3.47;1.58;;;;;;;;;;6217768;23;20008;-92
2023/01/16 00:50:49;;;;;;;7.15;2.70;;;;;;;;;;6243869;22;20016;-92
2023/01/16 00:53:15;;;;;;;5.22;2.28;;;;;;;;;;6217665;23;20051;-92
2023/01/16 00:55:41;;;;;;;11.52;2.67;;;;;;;;;;6217538;23;20028;-92
2023/01/16 00:58:10;;;;;;;7.95;3.33;;;;;;;;;;6216780;23;20103;-92
2023/01/16 01:00:37;;;;;;;13.57;3.08;;;;;;;;;;6241677;23;20039;-92
2023/01/16 01:03:03;;;;;;;8.88;3.15;;;;;;;;;;6242727;23;20000;-91
2023/01/16 01:05:30;;;;;;;9.75;3.00;;;;;;;;;;6216338;23;20019;-92
2023/01/16 01:07:56;;;;;;;7.63;2.78;;;;;;;;;;6241493;23;20000;-92
2023/01/16 01:10:22;;;;;;;10.00;2.95;;;;;;;;;;6244556;23;20395;-92
2023/01/16 01:12:48;;;;;;;8.38;2.45;;;;;;;;;;6218139;23;20012;-91
2023/01/16 01:15:14;;;;;;;15.07;2.20;;;;;;;;;;6217383;23;20239;-91
2023/01/16 01:17:40;;;;;;;7.72;2.22;;;;;;;;;;6244108;23;20014;-92
2023/01/16 01:20:06;;;;;;;8.68;2.60;;;;;;;;;;6218209;23;20012;-92
2023/01/16 01:22:32;;;;;;;7.72;2.92;;;;;;;;;;6218086;23;20009;-92
2023/01/16 01:24:59;;;;;;;7.75;2.70;;;;;;;;;;6243908;23;20450;-91
2023/01/16 01:27:25;;;;;;;7.07;2.35;;;;;;;;;;6243676;23;20015;-92
2023/01/16 01:29:51;;;;;;;10.50;3.88;;;;;;;;;;6218965;23;20103;-92
2023/01/16 01:32:17;;;;;;;14.23;3.33;;;;;;;;;;6245689;23;20004;-92
2023/01/16 01:34:49;;;;;;;6.57;3.28;;;;;;;;;;6219286;23;20035;-92
2023/01/16 01:37:15;;;;;;;10.77;3.78;;;;;;;;;;6218947;23;20072;-92
2023/01/16 01:39:41;;;;;;;11.77;4.25;;;;;;;;;;6217268;23;20347;-92
2023/01/16 01:44:56;;;;;;;12.40;4.63;;;;;;;;;;6244210;23;20022;-92
2023/01/16 01:47:26;;;;;;;12.68;5.38;;;;;;;;;;6243560;23;20519;-91
2023/01/16 01:49:58;;;;;;;16.45;5.18;;;;;;;;;;6257325;22;20073;-92
2023/01/16 01:52:32;;;;;;;12.55;4.97;;;;;;;;;;6245322;22;20493;-92
2023/01/16 01:55:00;;;;;;;11.02;4.90;;;;;;;;;;6217921;23;20150;-92
2023/01/16 01:57:46;;;;;;;8.75;4.13;;;;;;;;;;6243944;23;20008;-92
2023/01/16 02:00:16;;;;;;;13.25;4.28;;;;;;;;;;6244388;23;20012;-92
2023/01/16 02:02:45;;;;;;;8.10;3.10;;;;;;;;;;6244682;23;20014;-92
2023/01/16 02:05:13;;;;;;;10.48;3.47;;;;;;;;;;6241308;23;20256;-92
2023/01/16 02:07:39;;;;;;;6.30;2.72;;;;;;;;;;6244487;23;20491;-92
2023/01/16 02:10:20;;;;;;;9.50;2.72;;;;;;;;;;6243758;23;20050;-92
2023/01/16 02:12:47;;;;;;;17.02;2.72;;;;;;;;;;6244265;23;20047;-92
2023/01/16 02:15:13;;;;;;;8.73;2.92;;;;;;;;;;6219568;23;20356;-92
2023/01/16 02:20:28;;;;;;;14.13;3.13;;;;;;;;;;6245508;23;20146;-93
2023/01/16 02:23:00;;;;;;;8.95;2.17;;;;;;;;;;6242074;23;20455;-92
2023/01/16 02:25:45;;;;;;;10.45;2.88;;;;;;;;;;6245612;23;20000;-92
2023/01/16 02:28:30;;;;;;;16.65;2.63;;;;;;;;;;6244281;23;20011;-92
2023/01/16 02:31:15;;;;;;;7.63;2.75;;;;;;;;;;6244434;23;20031;-92
2023/01/16 02:33:50;;;;;;;4.10;2.38;;;;;;;;;;6242223;23;20023;-92
2023/01/16 02:36:19;;;;;;;10.98;3.92;;;;;;;;;;6243885;23;20091;-92
2023/01/16 02:39:15;;;;;;;9.70;3.75;;;;;;;;;;6244061;23;20492;-92
2023/01/16 02:41:44;;;;;;;10.75;3.20;;;;;;;;;;6163924;23;20108;-92
2023/01/16 02:44:22;;;;;;;5.90;3.13;;;;;;;;;;6243296;23;20463;-92
2023/01/16 02:46:52;;;;;;;7.40;3.65;;;;;;;;;;6243467;23;20543;-93
2023/01/16 02:49:27;;;;;;;9.93;3.50;;;;;;;;;;6243377;23;20012;-92
2023/01/16 02:52:07;;;;;;;18.30;4.20;;;;;;;;;;6243743;22;20035;-92
2023/01/16 02:54:49;;;;;;;11.52;3.92;;;;;;;;;;6242933;23;20018;-92
2023/01/16 02:57:19;;;;;;;15.40;3.65;;;;;;;;;;6250178;23;20035;-93
2023/01/16 02:59:45;;;;;;;14.40;3.55;;;;;;;;;;6221953;23;20084;-92
2023/01/16 03:02:11;;;;;;;12.02;2.70;;;;;;;;;;6245282;23;20000;-92
2023/01/16 03:04:37;;;;;;;7.25;2.90;;;;;;;;;;6243320;23;20047;-92
2023/01/16 03:07:03;;;;;;;12.40;3.10;;;;;;;;;;6243197;23;20008;-92
2023/01/16 03:09:34;;;;;;;16.25;3.10;;;;;;;;;;6242462;23;20531;-93
2023/01/16 03:12:01;;;;;;;11.30;3.65;;;;;;;;;;6243229;23;20165;-93
2023/01/16 03:14:32;;;;;;;7.07;2.70;;;;;;;;;;6244531;23;20455;-92
2023/01/16 03:17:33;;;;;;;8.23;2.65;;;;;;;;;;6243370;23;20462;-92
2023/01/16 03:20:09;;;;;;;9.57;2.25;;;;;;;;;;6155899;23;20469;-92
2023/01/16 03:22:51;;;;;;;7.38;2.35;;;;;;;;;;6231294;23;20050;-93
2023/01/16 03:25:20;;;;;;;6.38;2.25;;;;;;;;;;6243820;23;20032;-93
2023/01/16 03:28:05;;;;;;;11.70;2.50;;;;;;;;;;6243805;23;20004;-92
2023/01/16 03:30:37;;;;;;;16.20;3.22;;;;;;;;;;6242970;23;20004;-93
2023/01/16 03:33:06;;;;;;;10.85;2.65;;;;;;;;;;6242518;23;20082;-92
2023/01/16 03:35:35;;;;;;;8.10;2.47;;;;;;;;;;6242962;23;20008;-92
2023/01/16 03:38:04;;;;;;;8.63;2.78;;;;;;;;;;6242663;23;20023;-93
2023/01/16 03:40:32;;;;;;;11.43;3.08;;;;;;;;;;6244322;23;20008;-93
2023/01/16 03:43:02;;;;;;;12.02;2.85;;;;;;;;;;6243476;23;20066;-93
2023/01/16 03:45:34;;;;;;;13.77;2.85;;;;;;;;;;6244973;23;20038;-92
2023/01/16 03:48:04;;;;;;;11.50;3.08;;;;;;;;;;6244633;23;20019;-92
2023/01/16 03:50:30;;;;;;;14.00;4.07;;;;;;;;;;6243237;23;19996;-92
2023/01/16 03:52:59;;;;;;;13.93;3.95;;;;;;;;;;6240777;22;20050;-93
2023/01/16 03:55:39;;;;;;;7.85;4.05;;;;;;;;;;6244375;23;20008;-92
2023/01/16 03:58:11;;;;;;;23.02;5.28;;;;;;;;;;6242699;23;20035;-92
2023/01/16 04:00:40;;;;;;;14.50;4.90;;;;;;;;;;6245077;23;20050;-92
2023/01/16 04:03:09;;;;;;;16.05;4.53;;;;;;;;;;6242965;23;20071;-92
2023/01/16 04:06:01;;;;;;;11.93;3.67;;;;;;;;;;6245165;23;20004;-92
2023/01/16 04:08:29;;;;;;;8.85;3.20;;;;;;;;;;6239109;23;20012;-92
2023/01/16 04:10:55;;;;;;;13.02;3.28;;;;;;;;;;6244247;23;20048;-93
2023/01/16 04:13:28;;;;;;;11.20;4.40;;;;;;;;;;6217409;23;20099;-93
2023/01/16 04:15:56;;;;;;;11.32;4.10;;;;;;;;;;6243830;23;20349;-93
2023/01/16 04:18:24;;;;;;;10.30;4.13;;;;;;;;;;6245111;23;20453;-93
2023/01/16 04:20:50;;;;;;;8.27;2.75;;;;;;;;;;6243712;23;20011;-92
2023/01/16 04:23:16;;;;;;;11.05;3.35;;;;;;;;;;6242791;23;20087;-93
2023/01/16 04:25:43;;;;;;;5.45;2.00;;;;;;;;;;6217512;23;20001;-93
2023/01/16 04:28:09;;;;;;;13.75;2.95;;;;;;;;;;6243121;23;20092;-92
2023/01/16 04:30:35;;;;;;;5.43;2.38;;;;;;;;;;6245053;23;20012;-93
2023/01/16 04:33:02;;;;;;;10.88;3.38;;;;;;;;;;6218554;23;20051;-92
2023/01/16 04:35:28;;;;;;;4.75;2.50;;;;;;;;;;6243747;23;20019;-91
2023/01/16 04:37:54;;;;;;;5.72;2.60;;;;;;;;;;6217818;23;20077;-92
2023/01/16 04:40:20;;;;;;;7.00;2.83;;;;;;;;;;6243751;23;20067;-92
2023/01/16 04:42:46;;;;;;;6.22;3.15;;;;;;;;;;6219748;23;20015;-93
2023/01/16 04:45:12;;;;;;;6.65;1.55;;;;;;;;;;6220577;23;20000;-92
2023/01/16 04:47:38;;;;;;;12.55;3.50;;;;;;;;;;6244929;23;20444;-92
2023/01/16 04:50:04;;;;;;;13.52;3.47;;;;;;;;;;6244857;23;20000;-92
2023/01/16 04:52:30;;;;;;;19.02;3.33;;;;;;;;;;6246293;22;20016;-92
2023/01/16 04:54:57;;;;;;;4.57;2.60;;;;;;;;;;6220623;23;20016;-92
2023/01/16 04:57:23;;;;;;;7.10;2.72;;;;;;;;;;6243916;23;20012;-93
2023/01/16 04:59:49;;;;;;;10.15;3.25;;;;;;;;;;6219252;23;20376;-92
2023/01/16 05:02:15;;;;;;;11.98;4.07;;;;;;;;;;6219757;23;20012;-93
2023/01/16 05:04:41;;;;;;;14.70;4.28;;;;;;;;;;6220738;23;20475;-93
2023/01/16 05:07:07;;;;;;;11.60;4.10;;;;;;;;;;6244433;23;20449;-93
2023/01/16 05:09:33;;;;;;;16.92;4.45;;;;;;;;;;6222046;23;20008;-93
2023/01/16 05:11:59;;;;;;;14.25;3.70;;;;;;;;;;6245634;23;20024;-92
2023/01/16 05:14:25;;;;;;;11.43;4.68;;;;;;;;;;6220036;23;20012;-93
2023/01/16 05:16:51;;;;;;;9.63;4.22;;;;;;;;;;6245791;23;20011;-93
2023/01/16 05:19:17;;;;;;;8.85;4.55;;;;;;;;;;6217960;23;20107;-92
2023/01/16 05:21:43;;;;;;;9.02;4.05;;;;;;;;;;6221111;23;20009;-93
2023/01/16 05:24:09;;;;;;;28.35;6.32;;;;;;;;;;6218829;23;20008;-92
2023/01/16 05:26:35;;;;;;;20.42;5.20;;;;;;;;;;6219114;23;20039;-93
2023/01/16 05:29:01;;;;;;;16.70;6.00;;;;;;;;;;6220604;23;20020;-94
2023/01/16 05:31:27;;;;;;;18.10;6.78;;;;;;;;;;6219458;23;20016;-94
2023/01/16 05:33:53;;;;;;;19.40;6.07;;;;;;;;;;6221635;23;20038;-92
2023/01/16 05:36:19;;;;;;;13.80;4.97;;;;;;;;;;6222784;23;20016;-93
2023/01/16 05:38:46;;;;;;;16.90;5.78;;;;;;;;;;6226687;23;20074;-93
2023/01/16 05:41:12;;;;;;;16.17;5.70;;;;;;;;;;6221610;23;20004;-93
2023/01/16 05:43:38;;;;;;;19.05;4.63;;;;;;;;;;6220266;23;20008;-92
2023/01/16 05:46:04;;;;;;;14.88;5.47;;;;;;;;;;6219950;23;20016;-93
2023/01/16 05:48:32;;;;;;;16.45;5.03;;;;;;;;;;6219149;23;20150;-93
2023/01/16 05:50:58;;;;;;;13.90;5.63;;;;;;;;;;6219347;23;20012;-93
2023/01/16 05:53:27;;;;;;;15.60;5.65;;;;;;;;;;6243252;22;20018;-92
2023/01/16 05:55:54;;;;;;;18.75;6.10;;;;;;;;;;6220293;23;20008;-92
2023/01/16 05:58:20;;;;;;;13.48;5.85;;;;;;;;;;6242666;23;20210;-93
2023/01/16 06:00:46;;;;;;;17.95;5.28;;;;;;;;;;6218639;23;20325;-92
2023/01/16 06:03:12;;;;;;;19.13;6.72;;;;;;;;;;6243738;23;20023;-92
2023/01/16 06:05:38;;;;;;;14.07;5.32;;;;;;;;;;6218825;23;20004;-93
2023/01/16 06:08:04;;;;;;;20.92;6.35;;;;;;;;;;6244515;23;20511;-93
2023/01/16 06:10:30;;;;;;;14.60;7.30;;;;;;;;;;6243853;23;20011;-93
2023/01/16 06:12:56;;;;;;;16.45;6.97;;;;;;;;;;6244361;23;20495;-93
2023/01/16 06:15:23;;;;;;;22.27;6.88;;;;;;;;;;6220880;23;20232;-93
2023/01/16 06:17:52;;;;;;;20.77;6.55;;;;;;;;;;6244857;23;20008;-93
2023/01/16 06:20:18;;;;;;;15.50;5.88;;;;;;;;;;6218953;23;20058;-92
2023/01/16 06:22:45;;;;;;;14.07;6.28;;;;;;;;;;6220091;23;20444;-93
2023/01/16 06:25:11;;;;;;;10.27;5.32;;;;;;;;;;6245727;23;20008;-93
2023/01/16 06:27:37;;;;;;;15.45;6.30;;;;;;;;;;6244969;23;20000;-93
2023/01/16 06:30:04;;;;;;;26.17;6.50;;;;;;;;;;6218109;23;20065;-93
2023/01/16 06:32:30;;;;;;;19.08;6.70;;;;;;;;;;6244610;23;20428;-93
2023/01/16 06:34:56;;;;;;;24.33;7.40;;;;;;;;;;6220573;23;20008;-93
2023/01/16 06:37:24;;;;;;;17.65;7.10;;;;;;;;;;6221309;23;20036;-93
2023/01/16 06:39:51;;;;;;;22.25;8.13;;;;;;;;;;6245876;23;20352;-93
2023/01/16 06:42:17;;;;;;;20.65;7.97;;;;;;;;;;6222510;23;20035;-93
2023/01/16 06:44:43;;;;;;;26.85;8.93;;;;;;;;;;6226212;23;20095;-93
2023/01/16 06:47:09;;;;;;;24.10;8.98;;;;;;;;;;6256608;22;20023;-93
2023/01/16 06:49:35;;;;;;;26.83;9.27;;;;;;;;;;6267549;22;20008;-92
2023/01/16 06:52:01;;;;;;;21.80;7.57;;;;;;;;;;6240055;22;20099;-93
2023/01/16 06:54:27;;;;;;;25.35;7.63;;;;;;;;;;6237055;23;20008;-93
2023/01/16 06:56:54;;;;;;;16.42;8.02;;;;;;;;;;6251657;23;20004;-93
2023/01/16 06:59:20;;;;;;;25.58;8.48;;;;;;;;;;6226895;23;20008;-93
2023/01/16 07:01:46;;;;;;;18.38;7.80;;;;;;;;;;6258389;22;20387;-94
2023/01/16 07:04:12;;;;;;;21.38;8.52;;;;;;;;;;6250648;23;20097;-93
2023/01/16 07:06:39;;;;;;;21.75;7.63;;;;;;;;;;6250323;23;20022;-93
2023/01/16 07:09:05;;;;;;;15.93;7.40;;;;;;;;;;6225226;23;20004;-94
2023/01/16 07:11:32;;;;;;;25.45;7.28;;;;;;;;;;6223014;23;20458;-93
2023/01/16 07:24:57;;;;;;;23.52;6.40;;;;;;;;;;6254514;23;20074;-92
2023/01/16 07:27:23;;;;;;;20.70;6.15;;;;;;;;;;6250522;23;20008;-94
2023/01/16 07:29:50;;;;;;;21.15;7.57;;;;;;;;;;6253487;23;20056;-93
2023/01/16 07:32:16;;;;;;;19.55;7.20;;;;;;;;;;6226736;23;20013;-93
2023/01/16 07:34:42;;;;;;;20.85;8.02;;;;;;;;;;6226066;23;20008;-93
2023/01/16 07:37:10;;;;;;;15.75;7.15;;;;;;;;;;6225753;23;20012;-92
2023/01/16 07:39:42;;;;;;;18.13;7.07;;;;;;;;;;6249845;23;20091;-93
2023/01/16 07:42:08;;;;;;;28.55;7.13;;;;;;;;;;6225289;23;20151;-93
2023/01/16 07:44:34;;;;;;;19.77;5.60;;;;;;;;;;6227049;23;20008;-93
2023/01/16 07:47:01;;;;;;;14.93;6.45;;;;;;;;;;6247714;23;20008;-93
2023/01/16 07:49:33;;;;;;;19.80;7.20;;;;;;;;;;6224610;23;20012;-93
2023/01/16 07:52:00;;;;;;;19.55;7.20;;;;;;;;;;6249366;22;20016;-92
2023/01/16 07:54:26;;;;;;;15.18;6.32;;;;;;;;;;6223218;23;20091;-92
2023/01/16 07:56:52;;;;;;;9.75;5.05;;;;;;;;;;6249237;23;20001;-93
2023/01/16 07:59:18;;;;;;;19.02;6.60;;;;;;;;;;6220383;23;20248;-93
2023/01/16 08:01:53;;;;;;;21.67;6.47;;;;;;;;;;6226150;23;20008;-92
2023/01/16 08:04:19;;;;;;;12.10;5.60;;;;;;;;;;6249375;23;20368;-93
2023/01/16 08:06:45;;;;;;;16.95;5.75;;;;;;;;;;6225074;23;20257;-93
2023/01/16 08:09:11;;;;;;;15.35;6.07;;;;;;;;;;6247216;23;20008;-93
2023/01/16 08:11:38;;;;;;;24.67;6.85;;;;;;;;;;6222243;23;20024;-92
2023/01/16 08:14:05;;;;;;;18.63;6.28;;;;;;;;;;6225542;23;20019;-92
2023/01/16 08:16:34;;;;;;;22.75;6.78;;;;;;;;;;6256351;23;20019;-93
2023/01/16 08:19:03;;;;;;;19.38;6.38;;;;;;;;;;6236580;23;20070;-93
2023/01/16 08:21:29;;;;;;;18.35;6.53;;;;;;;;;;6236609;23;20015;-92
2023/01/16 08:23:55;;;;;;;13.40;6.18;;;;;;;;;;6260924;23;20008;-93
2023/01/16 08:26:22;;;;;;;20.88;6.85;;;;;;;;;;6260831;23;20000;-92
2023/01/16 08:28:48;;;;;;;22.70;7.07;;;;;;;;;;6249565;23;20447;-93
2023/01/16 08:31:15;;;;;;;15.63;6.82;;;;;;;;;;6247571;23;20012;-92
2023/01/16 08:33:42;;;;;;;12.57;5.82;;;;;;;;;;6224828;23;20012;-93
2023/01/16 08:36:10;;;;;;;19.00;6.35;;;;;;;;;;6246535;23;20349;-93
2023/01/16 08:38:36;;;;;;;17.67;6.20;;;;;;;;;;6244807;23;20019;-93
2023/01/16 08:41:02;;;;;;;17.73;7.07;;;;;;;;;;6245474;23;20004;-94
2023/01/16 08:51:57;;;;;;;16.50;4.70;;;;;;;;;;6252757;22;20064;-93
2023/01/16 08:54:26;;;;;;;18.10;5.22;;;;;;;;;;6225259;22;20031;-93
2023/01/16 08:56:52;;;;;;;17.98;5.80;;;;;;;;;;6228761;22;20053;-94
2023/01/16 08:59:18;;;;;;;17.75;5.97;;;;;;;;;;6229179;22;20035;-93
2023/01/16 09:01:44;;;;;;;10.15;5.18;;;;;;;;;;6227054;22;20019;-93
2023/01/16 09:04:13;;;;;;;15.30;5.60;;;;;;;;;;6251413;22;20502;-93
2023/01/16 09:06:39;;;;;;;16.30;5.53;;;;;;;;;;6251886;22;20004;-93
2023/01/16 09:09:06;;;;;;;28.08;6.30;;;;;;;;;;6250189;22;20419;-93
2023/01/16 09:14:20;;;;;;;18.58;5.93;;;;;;;;;;6257499;22;20019;-93
2023/01/16 09:16:46;;;;;;;13.05;5.22;;;;;;;;;;6255774;22;20016;-91
2023/01/16 09:19:12;;;;;;;16.52;5.07;;;;;;;;;;6253765;22;19992;-93
2023/01/16 09:21:38;;;;;;;12.23;5.30;;;;;;;;;;6228982;22;20015;-92
2023/01/16 09:24:04;;;;;;;16.10;4.93;;;;;;;;;;6254075;22;20048;-93
2023/01/16 09:26:30;;;;;;;15.75;4.72;;;;;;;;;;6230666;22;20015;-93
2023/01/16 09:28:57;;;;;;;16.05;5.45;;;;;;;;;;6255276;22;20018;-93
2023/01/16 09:31:23;;;;;;;10.75;4.28;;;;;;;;;;6231831;22;20018;-92
2023/01/16 09:33:54;;;;;;;10.55;4.38;;;;;;;;;;6229875;22;20038;-93
2023/01/16 09:36:20;;;;;;;12.35;5.18;;;;;;;;;;6254754;22;20027;-92
2023/01/16 09:38:46;;;;;;;14.88;4.88;;;;;;;;;;6258157;22;20011;-93
2023/01/16 09:44:02;;;;;;;12.63;4.45;;;;;;;;;;6279616;22;20014;-93
2023/01/16 09:46:30;;;;;;;11.25;5.05;;;;;;;;;;6252698;22;20008;-93
2023/01/16 09:48:56;;;;;;;15.23;4.47;;;;;;;;;;6250915;22;20004;-94
2023/01/16 09:51:24;;;;;;;13.43;4.65;;;;;;;;;;6250399;22;20031;-93
2023/01/16 09:59:52;;;;;;;11.68;3.85;;;;;;;;;;6250317;23;20023;-94
2023/01/16 10:02:48;;;;;;;6.85;3.53;;;;;;;;;;6246309;23;20011;-96
2023/01/16 10:05:15;;;;;;;8.73;4.05;;;;;;;;;;6228343;23;20008;-94
2023/01/16 10:07:50;;;;;;;10.57;2.70;;;;;;;;;;6222817;23;20067;-94
2023/01/16 10:10:26;;;;;;;13.73;3.60;;;;;;;;;;6244819;23;20008;-93
2023/01/16 10:12:58;;;;;;;9.48;4.20;;;;;;;;;;6244994;23;20431;-94
2023/01/16 10:15:32;;;;;;;13.80;3.30;;;;;;;;;;6246325;23;20432;-93
2023/01/16 10:18:16;;;;;;;10.43;3.67;;;;;;;;;;6246651;23;20004;-93
2023/01/16 10:21:01;;;;;;;11.80;3.47;;;;;;;;;;6251242;23;20066;-94
2023/01/16 10:23:48;;;;;;;9.02;2.97;;;;;;;;;;6245468;23;20058;-94
2023/01/16 10:26:20;;;;;;;9.38;3.03;;;;;;;;;;6248423;23;20031;-94
2023/01/16 10:28:56;;;;;;;10.55;3.22;;;;;;;;;;6245611;23;20428;-91
2023/01/16 10:31:25;;;;;;;10.98;4.03;;;;;;;;;;6246393;23;20396;-92
2023/01/16 10:33:56;;;;;;;11.82;3.28;;;;;;;;;;6246991;23;20073;-92
2023/01/16 10:36:26;;;;;;;9.88;2.78;;;;;;;;;;6245057;23;20008;-91
2023/01/16 10:38:56;;;;;;;6.93;2.30;;;;;;;;;;6245312;23;20012;-92
2023/01/16 10:49:56;;;;;;;11.13;3.15;;;;;;;;;;6249560;23;20440;-91
2023/01/16 10:52:24;;;;;;;8.73;2.70;;;;;;;;;;6221567;22;20472;-91
2023/01/16 10:54:50;;;;;;;10.55;2.67;;;;;;;;;;6246649;23;20079;-91
2023/01/16 10:57:17;;;;;;;6.10;2.25;;;;;;;;;;6218003;23;20099;-91
2023/01/16 10:59:46;;;;;;;6.10;2.92;;;;;;;;;;6219067;23;20016;-90
2023/01/16 11:02:28;;;;;;;5.50;2.72;;;;;;;;;;6245788;23;20088;-91
2023/01/16 11:04:54;;;;;;;5.50;1.95;;;;;;;;;;6246109;23;20027;-90
2023/01/16 11:07:21;;;;;;;7.82;2.08;;;;;;;;;;6244164;23;20020;-92
2023/01/16 11:09:47;;;;;;;6.70;1.83;;;;;;;;;;6221211;23;20432;-91
2023/01/16 11:18:38;;;;;;;4.97;1.58;;;;;;;;;;6248284;23;20031;-92
2023/01/16 11:21:37;;;;;;;4.63;1.33;;;;;;;;;;6213661;23;20072;-91
2023/01/16 11:24:26;;;;;;;5.75;1.67;;;;;;;;;;6194803;23;20321;-91
2023/01/16 11:26:54;;;;;;;5.95;1.20;;;;;;;;;;6233819;23;20942;-91
2023/01/16 11:29:23;;;;;;;2.63;1.38;;;;;;;;;;6245002;23;20383;-92
2023/01/16 11:31:56;;;;;;;4.15;1.65;;;;;;;;;;6245765;23;20011;-91
2023/01/16 11:34:26;;;;;;;6.38;1.30;;;;;;;;;;6245024;23;20466;-92
2023/01/16 11:36:53;;;;;;;4.05;1.02;;;;;;;;;;6246552;23;20102;-92
2023/01/16 11:39:23;;;;;;;6.55;1.60;;;;;;;;;;6245690;23;20108;-90
2023/01/16 11:41:52;;;;;;;7.00;1.40;;;;;;;;;;6244762;23;20391;-91
2023/01/16 11:47:03;;;;;;;1.35;0.95;;;;;;;;;;6244136;23;20019;-91
2023/01/16 11:49:40;;;;;;;1.98;1.17;;;;;;;;;;6219908;23;20012;-91
2023/01/16 11:52:06;;;;;;;9.13;1.60;;;;;;;;;;6244467;22;20492;-91
2023/01/16 11:54:39;;;;;;;4.85;1.63;;;;;;;;;;6245722;22;20019;-91
2023/01/16 11:57:23;;;;;;;4.85;1.75;;;;;;;;;;6219518;23;20015;-92
2023/01/16 12:00:00;;;;;;;6.22;1.77;;;;;;;;;;6242474;23;20008;-91
2023/01/16 12:02:29;;;;;;;1.63;0.82;;;;;;;;;;6247711;23;20008;-92
2023/01/16 12:07:58;;;;;;;1.52;0.77;;;;;;;;;;6246416;23;20091;-92
2023/01/16 12:10:29;;;;;;;3.80;1.63;;;;;;;;;;6244154;23;20391;-92
2023/01/16 12:15:58;;;;;;;3.20;1.27;;;;;;;;;;6248249;23;20382;-91
2023/01/16 12:18:43;;;;;;;3.30;1.40;;;;;;;;;;6246316;23;20427;-92
2023/01/16 12:21:25;;;;;;;3.03;1.30;;;;;;;;;;6248023;23;20510;-91
2023/01/16 12:23:58;;;;;;;2.78;1.38;;;;;;;;;;6248270;23;20064;-93
2023/01/16 12:26:29;;;;;;;5.85;1.63;;;;;;;;;;6245809;23;20075;-90
2023/01/16 12:29:14;;;;;;;4.60;1.80;;;;;;;;;;6243378;23;20009;-92
2023/01/16 12:31:44;;;;;;;3.45;1.60;;;;;;;;;;6244339;23;20032;-91
2023/01/16 12:34:28;;;;;;;2.42;1.35;;;;;;;;;;6243333;23;20008;-91
2023/01/16 12:37:17;;;;;;;1.67;1.08;;;;;;;;;;6241550;23;20004;-91
2023/01/16 12:39:46;;;;;;;2.08;1.55;;;;;;;;;;6245637;23;20050;-91
2023/01/16 12:45:32;;;;;;;2.47;1.52;;;;;;;;;;6214717;23;20008;-92
2023/01/16 12:48:07;;;;;;;1.23;0.95;;;;;;;;;;6248277;23;20012;-92
2023/01/16 12:50:51;;;;;;;2.45;1.63;;;;;;;;;;6244699;23;20004;-90
2023/01/16 12:53:30;;;;;;;8.75;1.85;;;;;;;;;;6247362;22;20095;-90
2023/01/16 12:56:15;;;;;;;5.15;1.73;;;;;;;;;;6248743;23;20008;-94
2023/01/16 12:58:44;;;;;;;5.47;1.77;;;;;;;;;;6248421;23;20114;-92
2023/01/16 13:01:17;;;;;;;4.88;2.28;;;;;;;;;;6244762;23;20016;-92
2023/01/16 13:03:59;;;;;;;2.55;1.65;;;;;;;;;;6244157;23;20035;-92
2023/01/16 13:06:45;;;;;;;3.13;1.73;;;;;;;;;;6246227;23;20409;-93
2023/01/16 13:09:24;;;;;;;7.65;2.22;;;;;;;;;;6249866;23;19992;-92
2023/01/16 13:14:47;;;;;;;4.57;1.52;;;;;;;;;;6248211;23;20015;-90
2023/01/16 13:17:20;;;;;;;3.30;1.98;;;;;;;;;;6246920;23;20042;-93
2023/01/16 13:20:26;;;;;;;7.47;2.25;;;;;;;;;;6254674;23;20058;-91
2023/01/16 13:23:02;;;;;;;6.03;2.30;;;;;;;;;;6242910;23;20460;-91
2023/01/16 13:25:31;;;;;;;3.92;1.98;;;;;;;;;;6248012;23;20251;-92
2023/01/16 13:27:59;;;;;;;5.82;2.47;;;;;;;;;;6251644;23;20000;-93
2023/01/16 13:30:25;;;;;;;4.15;2.72;;;;;;;;;;6247787;23;20016;-90
2023/01/16 13:32:55;;;;;;;8.32;3.88;;;;;;;;;;6222474;23;20066;-91
2023/01/16 13:35:21;;;;;;;9.15;4.15;;;;;;;;;;6244159;23;20232;-91
2023/01/16 13:37:51;;;;;;;3.03;1.85;;;;;;;;;;6244500;23;20400;-91
2023/01/16 13:40:23;;;;;;;4.80;2.05;;;;;;;;;;6245208;23;20093;-92
2023/01/16 13:42:52;;;;;;;2.75;2.35;;;;;;;;;;6239578;23;20004;-92
2023/01/16 13:45:47;;;;;;;8.77;2.55;;;;;;;;;;6241846;23;20004;-91
2023/01/16 13:48:14;;;;;;;4.57;2.50;;;;;;;;;;6245657;23;20464;-91
2023/01/16 13:50:44;;;;;;;8.30;2.50;;;;;;;;;;6246277;23;20099;-92
2023/01/16 13:53:13;;;;;;;6.20;2.20;;;;;;;;;;6245783;22;20043;-92
2023/01/16 13:55:42;;;;;;;2.45;1.90;;;;;;;;;;6247175;23;20011;-92
2023/01/16 13:58:22;;;;;;;6.38;1.83;;;;;;;;;;6219664;23;20012;-93
2023/01/16 14:01:01;;;;;;;10.82;2.55;;;;;;;;;;6248569;23;20091;-93
2023/01/16 14:03:35;;;;;;;3.95;1.92;;;;;;;;;;6246959;23;20012;-93
2023/01/16 14:06:10;;;;;;;3.78;2.67;;;;;;;;;;6246485;23;20004;-93
2023/01/16 14:09:07;;;;;;;3.28;2.35;;;;;;;;;;6249943;23;20019;-92
2023/01/16 14:11:34;;;;;;;3.10;1.88;;;;;;;;;;6246346;23;20054;-93
2023/01/16 14:17:22;;;;;;;2.47;1.45;;;;;;;;;;6184047;23;20333;-91
2023/01/16 14:19:59;;;;;;;8.15;1.98;;;;;;;;;;6239515;23;20034;-93
2023/01/16 14:24:53;;;;;;;6.47;2.13;;;;;;;;;;6248178;23;20345;-92
2023/01/16 14:27:21;;;;;;;6.13;1.92;;;;;;;;;;6245374;23;20003;-92
2023/01/16 14:29:52;;;;;;;4.05;1.48;;;;;;;;;;6245696;23;20008;-92
2023/01/16 14:32:19;;;;;;;3.17;1.88;;;;;;;;;;6245686;23;20459;-93
2023/01/16 14:35:11;;;;;;;6.00;1.63;;;;;;;;;;6243926;23;20011;-92
2023/01/16 14:37:39;;;;;;;2.72;2.08;;;;;;;;;;6245975;23;20011;-92
2023/01/16 14:40:09;;;;;;;4.65;2.17;;;;;;;;;;6245297;23;20035;-92
2023/01/16 14:56:33;;;;;;;10.38;3.05;;;;;;;;;;6255849;22;20060;-90
2023/01/16 14:59:04;;;;;;;6.07;2.53;;;;;;;;;;6249404;22;20091;-90
2023/01/16 15:04:46;;;;;;;7.82;2.40;;;;;;;;;;6277046;22;20098;-92
2023/01/16 15:07:15;;;;;;;2.30;1.80;;;;;;;;;;6253481;22;20026;-95
2023/01/16 15:09:46;;;;;;;3.28;2.13;;;;;;;;;;6255816;22;20008;-95
2023/01/16 15:12:25;;;;;;;7.40;2.00;;;;;;;;;;6257753;22;20428;-96
2023/01/16 15:14:55;;;;;;;2.22;1.65;;;;;;;;;;6251355;22;20057;-93
2023/01/16 15:23:20;;;;;;;3.70;2.25;;;;;;;;;;6285990;22;20015;-96
2023/01/16 15:26:25;;;;;;;5.10;2.45;;;;;;;;;;6255820;22;20030;-96
2023/01/16 15:29:21;;;;;;;3.28;1.70;;;;;;;;;;6128289;23;20060;-91
2023/01/16 15:31:57;;;;;;;4.32;1.80;;;;;;;;;;6098114;23;20017;-92
2023/01/16 15:37:32;;;;;;;8.55;1.75;;;;;;;;;;6238042;22;20014;-91
2023/01/16 15:39:58;;;;;;;3.80;2.00;;;;;;;;;;6226761;22;20011;-95
2023/01/16 15:48:27;;;;;;;5.93;1.77;;;;;;;;;;6298110;22;20010;-96
2023/01/16 15:51:00;;;;;;;2.80;1.73;;;;;;;;;;6270269;22;20051;-94
2023/01/16 15:53:52;;;;;;;3.10;1.70;;;;;;;;;;6269536;22;20020;-92
2023/01/16 15:56:41;;;;;;;4.18;1.70;;;;;;;;;;6296911;22;20011;-96
2023/01/16 15:59:26;;;;;;;3.22;2.05;;;;;;;;;;6293149;22;20026;-93
2023/01/16 16:01:53;;;;;;;6.63;1.80;;;;;;;;;;6259005;22;20030;-94
2023/01/16 16:04:20;;;;;;;4.82;1.70;;;;;;;;;;6252864;22;20008;-93
2023/01/16 16:06:46;;;;;;;4.68;1.75;;;;;;;;;;6229769;22;20038;-93
2023/01/16 16:09:23;;;;;;;4.00;1.80;;;;;;;;;;6253465;22;20036;-92
2023/01/16 16:11:52;;;;;;;1.85;1.63;;;;;;;;;;6253663;22;20019;-93
2023/01/16 16:20:26;;;;;;;3.83;1.60;;;;;;;;;;6280788;22;20158;-93
2023/01/16 16:23:01;;;;;;;4.90;1.92;;;;;;;;;;6254517;22;20003;-93
2023/01/16 16:25:57;;;;;;;3.90;1.85;;;;;;;;;;6253806;22;20014;-94
2023/01/16 16:28:35;;;;;;;6.63;2.53;;;;;;;;;;6227817;22;20007;-94
2023/01/16 16:31:18;;;;;;;3.30;2.13;;;;;;;;;;6255106;22;20007;-94
2023/01/16 16:33:55;;;;;;;2.00;1.60;;;;;;;;;;6253927;22;20008;-94
2023/01/16 16:36:22;;;;;;;2.78;1.90;;;;;;;;;;6255374;22;20016;-93
2023/01/16 16:38:50;;;;;;;6.30;2.05;;;;;;;;;;6229033;22;20767;-94
2023/01/16 16:41:16;;;;;;;3.30;2.00;;;;;;;;;;6227772;22;20015;-94
2023/01/16 16:43:53;;;;;;;6.05;2.00;;;;;;;;;;6253941;22;20000;-96
2023/01/16 16:46:28;;;;;;;4.43;1.88;;;;;;;;;;6255536;22;20000;-95